createdAt,value
2022-11-10T00:02:09.667Z,11.21
2022-11-10T00:04:36.024Z,11.17
2022-11-10T00:07:02.361Z,11.16
2022-11-10T00:09:28.675Z,11.14
2022-11-10T00:11:55.046Z,11.12
2022-11-10T00:14:21.451Z,11.16
2022-11-10T00:16:47.755Z,11.25
2022-11-10T00:19:14.444Z,11.35
2022-11-10T00:21:40.782Z,11.20
2022-11-10T00:24:07.143Z,11.16
2022-11-10T00:26:33.477Z,11.14
2022-11-10T00:28:59.831Z,11.07
2022-11-10T00:31:26.162Z,11.12
2022-11-10T00:33:52.506Z,11.08
2022-11-10T00:36:18.877Z,10.95
2022-11-10T00:38:45.216Z,10.93
2022-11-10T00:41:11.537Z,10.82
2022-11-10T00:43:37.876Z,10.77
2022-11-10T00:46:04.218Z,10.80
2022-11-10T00:48:30.541Z,10.79
2022-11-10T00:50:56.862Z,10.81
2022-11-10T00:53:23.583Z,10.78
2022-11-10T00:55:49.518Z,10.79
2022-11-10T00:58:15.884Z,10.80
2022-11-10T01:00:42.283Z,10.74
2022-11-10T01:03:08.595Z,10.81
2022-11-10T01:05:34.973Z,10.69
2022-11-10T01:08:01.328Z,10.72
2022-11-10T01:10:27.642Z,10.68
2022-11-10T01:12:54.009Z,10.63
2022-11-10T01:15:24.510Z,10.68
2022-11-10T01:17:46.670Z,10.63
2022-11-10T01:20:12.991Z,10.68
2022-11-10T01:22:41.434Z,10.70
2022-11-10T01:25:07.751Z,10.73
2022-11-10T01:27:34.174Z,10.76
2022-11-10T01:30:00.497Z,10.73
2022-11-10T01:32:26.821Z,10.79
2022-11-10T01:34:53.187Z,10.83
2022-11-10T01:37:19.512Z,10.73
2022-11-10T01:39:45.832Z,10.67
2022-11-10T01:42:12.184Z,10.72
2022-11-10T01:44:38.498Z,10.71
2022-11-10T01:47:04.940Z,10.78
2022-11-10T01:49:31.260Z,10.80
2022-11-10T01:51:57.620Z,10.80
2022-11-10T01:54:23.958Z,10.70
2022-11-10T01:56:50.274Z,10.69
2022-11-10T01:59:16.627Z,10.60
2022-11-10T02:01:42.953Z,10.65
2022-11-10T02:04:09.302Z,10.61
2022-11-10T02:06:35.727Z,10.54
2022-11-10T02:09:02.002Z,10.60
2022-11-10T02:11:28.363Z,10.53
2022-11-10T02:13:54.707Z,10.53
2022-11-10T02:16:21.054Z,10.49
2022-11-10T02:18:47.364Z,10.41
2022-11-10T02:21:13.727Z,10.43
2022-11-10T02:23:40.044Z,10.60
2022-11-10T02:26:06.429Z,10.57
2022-11-10T02:28:32.868Z,10.26
2022-11-10T02:30:59.138Z,10.19
2022-11-10T02:33:25.494Z,10.16
2022-11-10T02:35:51.969Z,10.21
2022-11-10T02:38:18.300Z,10.16
2022-11-10T02:40:44.630Z,10.21
2022-11-10T02:43:11.043Z,10.24
2022-11-10T02:45:37.333Z,10.21
2022-11-10T02:48:03.675Z,10.18
2022-11-10T02:50:30.054Z,10.16
2022-11-10T02:52:56.456Z,10.04
2022-11-10T02:55:22.745Z,10.06
2022-11-10T02:57:49.094Z,10.00
2022-11-10T03:00:15.456Z,9.97
2022-11-10T03:02:41.750Z,9.99
2022-11-10T03:05:08.074Z,10.02
2022-11-10T03:07:34.427Z,9.98
2022-11-10T03:10:00.774Z,9.98
2022-11-10T03:12:27.089Z,9.91
2022-11-10T03:14:53.434Z,9.92
2022-11-10T03:17:19.769Z,9.97
2022-11-10T03:19:46.107Z,9.92
2022-11-10T03:22:12.454Z,9.88
2022-11-10T03:24:38.778Z,9.86
2022-11-10T03:27:05.137Z,10.10
2022-11-10T03:29:31.460Z,10.00
2022-11-10T03:31:57.893Z,9.92
2022-11-10T03:34:27.026Z,9.88
2022-11-10T03:36:50.505Z,9.81
2022-11-10T03:39:16.849Z,9.80
2022-11-10T03:41:43.186Z,9.80
2022-11-10T03:44:09.636Z,9.78
2022-11-10T03:46:35.960Z,9.80
2022-11-10T03:49:02.304Z,9.80
2022-11-10T03:51:28.614Z,9.69
2022-11-10T03:53:55.002Z,9.62
2022-11-10T03:56:21.342Z,9.59
2022-11-10T03:58:47.747Z,9.56
2022-11-10T04:01:17.614Z,9.54
2022-11-10T04:03:54.045Z,9.48
2022-11-10T04:06:11.407Z,9.33
2022-11-10T04:08:37.790Z,9.37
2022-11-10T04:11:04.188Z,9.30
2022-11-10T04:13:30.576Z,9.22
2022-11-10T04:15:56.924Z,9.26
2022-11-10T04:18:23.294Z,9.28
2022-11-10T04:20:49.650Z,9.33
2022-11-10T04:23:16.012Z,9.30
2022-11-10T04:25:42.350Z,9.24
2022-11-10T04:28:08.692Z,9.40
2022-11-10T04:30:35.076Z,9.52
2022-11-10T04:33:01.411Z,9.48
2022-11-10T04:35:27.750Z,9.56
2022-11-10T04:37:54.173Z,9.45
2022-11-10T04:40:20.936Z,9.49
2022-11-10T04:42:47.216Z,9.62
2022-11-10T04:45:13.553Z,9.68
2022-11-10T04:47:39.870Z,9.81
2022-11-10T04:50:06.197Z,9.84
2022-11-10T04:52:32.540Z,9.86
2022-11-10T04:54:58.913Z,9.84
2022-11-10T04:57:25.246Z,9.88
2022-11-10T04:59:51.572Z,9.76
2022-11-10T05:02:17.914Z,9.60
2022-11-10T05:04:44.258Z,9.35
2022-11-10T05:07:10.616Z,9.34
2022-11-10T05:09:36.896Z,9.36
2022-11-10T05:12:03.215Z,9.33
2022-11-10T05:14:29.557Z,9.31
2022-11-10T05:16:55.946Z,9.32
2022-11-10T05:19:22.267Z,9.36
2022-11-10T05:21:48.612Z,9.41
2022-11-10T05:24:14.939Z,9.49
2022-11-10T05:26:41.271Z,9.46
2022-11-10T05:29:08.232Z,9.56
2022-11-10T05:31:34.530Z,9.63
2022-11-10T05:34:00.848Z,9.64
2022-11-10T05:36:27.217Z,9.63
2022-11-10T05:38:53.558Z,9.62
2022-11-10T05:41:19.932Z,9.66
2022-11-10T05:43:46.222Z,9.71
2022-11-10T05:46:12.555Z,9.70
2022-11-10T05:48:38.936Z,9.84
2022-11-10T05:51:05.276Z,9.96
2022-11-10T05:53:31.603Z,10.01
2022-11-10T05:55:57.936Z,9.90
2022-11-10T05:58:24.351Z,9.97
2022-11-10T06:00:50.695Z,10.01
2022-11-10T06:03:17.069Z,9.90
2022-11-10T06:05:43.362Z,9.86
2022-11-10T06:08:09.687Z,9.88
2022-11-10T06:10:36.074Z,9.89
2022-11-10T06:13:02.413Z,9.89
2022-11-10T06:15:28.762Z,9.76
2022-11-10T06:17:55.106Z,9.61
2022-11-10T06:20:21.415Z,9.58
2022-11-10T06:22:47.766Z,9.58
2022-11-10T06:25:14.129Z,9.65
2022-11-10T06:27:40.443Z,9.61
2022-11-10T06:30:06.768Z,9.94
2022-11-10T06:32:33.131Z,10.18
2022-11-10T06:35:00.811Z,10.07
2022-11-10T06:37:25.826Z,10.02
2022-11-10T06:39:52.150Z,9.98
2022-11-10T06:42:18.493Z,9.98
2022-11-10T06:44:44.845Z,10.00
2022-11-10T06:47:11.301Z,9.83
2022-11-10T06:49:37.623Z,9.82
2022-11-10T06:52:03.997Z,9.77
2022-11-10T06:54:30.314Z,9.75
2022-11-10T06:56:56.640Z,9.80
2022-11-10T06:59:22.987Z,9.84
2022-11-10T07:01:49.329Z,9.86
2022-11-10T07:04:20.340Z,9.93
2022-11-10T07:06:42.015Z,10.01
2022-11-10T07:09:08.310Z,10.16
2022-11-10T07:11:34.687Z,10.34
2022-11-10T07:14:01.027Z,10.50
2022-11-10T07:16:27.350Z,10.62
2022-11-10T07:18:53.796Z,10.67
2022-11-10T07:21:20.125Z,10.79
2022-11-10T07:23:46.516Z,10.91
2022-11-10T07:26:12.869Z,11.15
2022-11-10T07:28:39.193Z,11.45
2022-11-10T07:31:05.517Z,11.71
2022-11-10T07:33:31.862Z,12.06
2022-11-10T07:35:58.309Z,11.85
2022-11-10T07:38:24.688Z,12.10
2022-11-10T07:40:50.999Z,12.56
2022-11-10T07:43:17.323Z,12.92
2022-11-10T07:45:43.666Z,13.37
2022-11-10T07:48:09.988Z,14.43
2022-11-10T07:50:36.336Z,14.81
2022-11-10T07:53:02.677Z,14.81
2022-11-10T07:55:29.020Z,15.17
2022-11-10T07:57:55.366Z,15.33
2022-11-10T08:00:21.760Z,15.31
2022-11-10T08:02:48.093Z,15.20
2022-11-10T08:05:14.439Z,15.28
2022-11-10T08:07:40.891Z,15.79
2022-11-10T08:10:07.084Z,15.91
2022-11-10T08:12:33.900Z,15.89
2022-11-10T08:14:59.741Z,15.76
2022-11-10T08:17:26.118Z,15.72
2022-11-10T08:19:52.479Z,15.91
2022-11-10T08:22:18.815Z,15.72
2022-11-10T08:24:45.135Z,15.56
2022-11-10T08:27:11.461Z,15.77
2022-11-10T08:29:37.809Z,15.97
2022-11-10T08:32:04.134Z,16.29
2022-11-10T08:34:30.482Z,16.12
2022-11-10T08:36:56.798Z,16.15
2022-11-10T08:39:38.050Z,16.46
2022-11-10T08:41:49.503Z,16.51
2022-11-10T08:44:20.700Z,16.63
2022-11-10T08:46:42.181Z,16.59
2022-11-10T08:49:08.520Z,16.67
2022-11-10T08:51:38.880Z,16.82
2022-11-10T08:54:01.161Z,17.18
2022-11-10T08:56:27.504Z,17.50
2022-11-10T08:58:53.856Z,17.51
2022-11-10T09:01:20.241Z,17.46
2022-11-10T09:03:46.580Z,17.45
2022-11-10T09:06:12.931Z,17.79
2022-11-10T09:08:39.274Z,18.03
2022-11-10T09:11:05.638Z,18.04
2022-11-10T09:13:32.337Z,18.24
2022-11-10T09:15:58.430Z,18.29
2022-11-10T09:18:24.762Z,18.44
2022-11-10T09:20:51.116Z,18.72
2022-11-10T09:23:17.470Z,18.78
2022-11-10T09:25:43.868Z,18.70
2022-11-10T09:28:10.195Z,18.66
2022-11-10T09:30:36.509Z,19.15
2022-11-10T09:33:02.860Z,19.09
2022-11-10T09:35:29.208Z,19.20
2022-11-10T09:37:55.551Z,19.13
2022-11-10T09:40:21.949Z,19.41
2022-11-10T09:42:48.396Z,19.16
2022-11-10T09:45:14.825Z,19.04
2022-11-10T09:47:58.120Z,19.30
2022-11-10T09:50:07.446Z,19.53
2022-11-10T09:52:33.848Z,19.52
2022-11-10T09:55:00.192Z,19.74
2022-11-10T09:57:26.552Z,19.87
2022-11-10T09:59:52.887Z,20.19
2022-11-10T10:02:19.228Z,19.84
2022-11-10T10:04:51.742Z,20.00
2022-11-10T10:07:12.199Z,20.23
2022-11-10T10:09:38.234Z,20.36
2022-11-10T10:12:04.598Z,20.27
2022-11-10T10:14:30.946Z,20.61
2022-11-10T10:16:57.300Z,20.54
2022-11-10T10:19:23.625Z,21.19
2022-11-10T10:21:49.954Z,21.10
2022-11-10T10:24:21.546Z,21.17
2022-11-10T10:26:42.667Z,21.19
2022-11-10T10:29:08.989Z,20.88
2022-11-10T10:31:35.314Z,21.20
2022-11-10T10:34:01.763Z,21.44
2022-11-10T10:36:28.083Z,21.43
2022-11-10T10:38:54.460Z,20.76
2022-11-10T10:41:23.838Z,20.70
2022-11-10T10:43:47.197Z,20.94
2022-11-10T10:46:13.514Z,21.79
2022-11-10T10:48:39.905Z,21.66
2022-11-10T10:51:06.222Z,21.53
2022-11-10T10:53:32.542Z,21.55
2022-11-10T10:55:58.872Z,22.12
2022-11-10T10:58:25.832Z,22.28
2022-11-10T11:00:51.570Z,22.15
2022-11-10T11:03:17.921Z,22.35
2022-11-10T11:05:44.240Z,21.86
2022-11-10T11:08:10.571Z,22.10
2022-11-10T11:10:36.917Z,22.20
2022-11-10T11:13:03.271Z,22.07
2022-11-10T11:15:29.620Z,22.06
2022-11-10T11:17:55.960Z,22.47
2022-11-10T11:20:24.377Z,22.64
2022-11-10T11:22:48.634Z,22.63
2022-11-10T11:25:15.019Z,22.78
2022-11-10T11:27:41.429Z,22.27
2022-11-10T11:30:07.716Z,22.38
2022-11-10T11:32:34.064Z,22.65
2022-11-10T11:35:00.390Z,22.25
2022-11-10T11:37:26.727Z,22.93
2022-11-10T11:39:53.050Z,22.91
2022-11-10T11:42:19.370Z,22.80
2022-11-10T11:44:45.732Z,22.89
2022-11-10T11:47:12.071Z,22.70
2022-11-10T11:49:38.474Z,22.88
2022-11-10T11:52:04.806Z,22.86
2022-11-10T11:54:31.148Z,22.75
2022-11-10T11:56:57.515Z,22.11
2022-11-10T11:59:23.840Z,22.56
2022-11-10T12:01:50.187Z,22.68
2022-11-10T12:04:16.588Z,22.74
2022-11-10T12:06:42.974Z,23.04
2022-11-10T12:09:09.324Z,23.25
2022-11-10T12:11:35.662Z,23.48
2022-11-10T12:14:01.985Z,23.15
2022-11-10T12:16:28.311Z,23.09
2022-11-10T12:18:54.651Z,23.28
2022-11-10T12:21:20.971Z,23.14
2022-11-10T12:23:47.332Z,22.52
2022-11-10T12:26:13.682Z,22.81
2022-11-10T12:28:40.069Z,23.04
2022-11-10T12:31:06.376Z,23.42
2022-11-10T12:33:32.716Z,23.61
2022-11-10T12:35:59.061Z,23.20
2022-11-10T12:38:25.651Z,23.70
2022-11-10T12:40:51.731Z,23.55
2022-11-10T12:43:18.071Z,23.62
2022-11-10T12:45:44.444Z,23.58
2022-11-10T12:48:10.773Z,23.24
2022-11-10T12:50:37.111Z,23.13
2022-11-10T12:53:03.461Z,23.32
2022-11-10T12:55:29.773Z,23.19
2022-11-10T12:57:56.120Z,23.23
2022-11-10T13:00:27.392Z,23.11
2022-11-10T13:02:48.818Z,22.84
2022-11-10T13:05:15.170Z,22.94
2022-11-10T13:07:41.481Z,23.02
2022-11-10T13:10:07.831Z,23.10
2022-11-10T13:12:34.164Z,22.86
2022-11-10T13:15:00.497Z,22.87
2022-11-10T13:17:26.880Z,22.99
2022-11-10T13:19:53.216Z,23.09
2022-11-10T13:22:22.940Z,22.90
2022-11-10T13:24:45.952Z,22.46
2022-11-10T13:27:12.255Z,22.25
2022-11-10T13:29:38.605Z,21.98
2022-11-10T13:32:04.940Z,21.47
2022-11-10T13:34:31.262Z,21.33
2022-11-10T13:36:57.627Z,21.17
2022-11-10T13:39:23.949Z,20.88
2022-11-10T13:41:50.303Z,20.98
2022-11-10T13:44:16.646Z,20.82
2022-11-10T13:46:42.979Z,20.59
2022-11-10T13:49:14.249Z,20.32
2022-11-10T13:51:35.649Z,20.28
2022-11-10T13:54:01.997Z,20.31
2022-11-10T13:56:28.320Z,20.31
2022-11-10T13:58:54.670Z,20.41
2022-11-10T14:01:20.990Z,20.27
2022-11-10T14:03:47.421Z,20.29
2022-11-10T14:06:13.682Z,20.23
2022-11-10T14:08:40.009Z,20.13
2022-11-10T14:11:06.354Z,20.01
2022-11-10T14:13:32.726Z,19.97
2022-11-10T14:15:59.081Z,19.94
2022-11-10T14:18:25.816Z,19.88
2022-11-10T14:20:51.753Z,19.83
2022-11-10T14:23:18.116Z,19.75
2022-11-10T14:25:44.422Z,19.58
2022-11-10T14:28:10.771Z,19.47
2022-11-10T14:30:37.124Z,19.38
2022-11-10T14:33:03.455Z,19.35
2022-11-10T14:35:29.822Z,19.26
2022-11-10T14:37:56.131Z,19.13
2022-11-10T14:40:22.460Z,19.07
2022-11-10T14:42:48.832Z,18.98
2022-11-10T14:45:15.177Z,18.89
2022-11-10T14:47:41.513Z,18.80
2022-11-10T14:50:07.842Z,18.68
2022-11-10T14:52:34.156Z,18.61
2022-11-10T14:55:00.496Z,18.59
2022-11-10T14:57:26.847Z,18.51
2022-11-10T14:59:53.178Z,18.45
2022-11-10T15:02:19.508Z,18.39
2022-11-10T15:04:46.363Z,18.28
2022-11-10T15:07:12.202Z,18.18
2022-11-10T15:09:39.658Z,18.11
2022-11-10T15:12:06.077Z,18.07
2022-11-10T15:14:31.147Z,18.10
2022-11-10T15:16:57.462Z,18.05
2022-11-10T15:19:23.800Z,17.95
2022-11-10T15:21:50.111Z,17.88
2022-11-10T15:24:16.418Z,17.83
2022-11-10T15:26:42.735Z,17.85
2022-11-10T15:29:09.043Z,17.87
2022-11-10T15:31:35.359Z,17.85
2022-11-10T15:34:01.672Z,17.70
2022-11-10T15:36:28.015Z,17.69
2022-11-10T15:38:54.312Z,17.77
2022-11-10T15:41:25.629Z,17.67
2022-11-10T15:43:46.961Z,17.60
2022-11-10T15:46:17.905Z,17.48
2022-11-10T15:48:39.639Z,17.40
2022-11-10T15:51:05.953Z,17.33
2022-11-10T15:53:32.315Z,17.23
2022-11-10T15:55:58.625Z,17.22
2022-11-10T15:58:25.287Z,17.08
2022-11-10T16:00:52.358Z,17.02
2022-11-10T16:03:18.682Z,16.99
2022-11-10T16:05:45.010Z,16.88
2022-11-10T16:08:11.322Z,16.83
2022-11-10T16:10:37.661Z,16.81
2022-11-10T16:13:03.976Z,16.85
2022-11-10T16:15:30.311Z,16.71
2022-11-10T16:17:56.614Z,16.64
2022-11-10T16:20:22.940Z,16.61
2022-11-10T16:22:49.245Z,16.64
2022-11-10T16:25:22.623Z,16.64
2022-11-10T16:27:42.981Z,16.56
2022-11-10T16:30:09.315Z,16.48
2022-11-10T16:32:35.640Z,16.42
2022-11-10T16:35:01.950Z,16.32
2022-11-10T16:37:30.688Z,16.19
2022-11-10T16:39:54.595Z,16.14
2022-11-10T16:42:20.904Z,16.08
2022-11-10T16:44:47.271Z,16.03
2022-11-10T16:47:13.564Z,15.95
2022-11-10T16:49:39.935Z,15.88
2022-11-10T16:52:06.244Z,15.82
2022-11-10T16:54:32.576Z,15.77
2022-11-10T16:56:58.886Z,15.76
2022-11-10T16:59:25.199Z,15.72
2022-11-10T17:01:51.595Z,15.70
2022-11-10T17:04:17.858Z,15.68
2022-11-10T17:06:44.258Z,15.60
2022-11-10T17:09:10.499Z,15.55
2022-11-10T17:11:36.871Z,15.52
2022-11-10T17:14:03.233Z,15.48
2022-11-10T17:16:29.531Z,15.50
2022-11-10T17:18:55.842Z,15.52
2022-11-10T17:21:22.155Z,15.54
2022-11-10T17:23:48.545Z,15.44
2022-11-10T17:26:14.869Z,15.30
2022-11-10T17:28:41.152Z,15.20
2022-11-10T17:31:07.478Z,15.13
2022-11-10T17:33:33.788Z,15.06
2022-11-10T17:36:00.183Z,15.03
2022-11-10T17:38:26.506Z,15.03
2022-11-10T17:40:52.812Z,15.16
2022-11-10T17:43:19.193Z,15.14
2022-11-10T17:45:45.591Z,15.03
2022-11-10T17:48:12.441Z,15.09
2022-11-10T17:50:39.196Z,15.12
2022-11-10T17:53:05.566Z,15.08
2022-11-10T17:55:34.501Z,15.07
2022-11-10T17:57:58.249Z,15.07
2022-11-10T18:00:24.578Z,15.04
2022-11-10T18:02:55.068Z,15.03
2022-11-10T18:05:17.244Z,15.02
2022-11-10T18:07:43.661Z,14.93
2022-11-10T18:10:09.924Z,14.87
2022-11-10T18:12:36.279Z,14.81
2022-11-10T18:15:02.589Z,14.63
2022-11-10T18:17:28.926Z,14.45
2022-11-10T18:19:55.362Z,14.37
2022-11-10T18:22:21.604Z,14.34
2022-11-10T18:24:47.936Z,14.31
2022-11-10T18:27:14.535Z,14.20
2022-11-10T18:29:40.944Z,14.17
2022-11-10T18:32:07.572Z,14.10
2022-11-10T18:34:33.852Z,14.04
2022-11-10T18:37:00.188Z,13.90
2022-11-10T18:39:26.560Z,13.77
2022-11-10T18:41:52.869Z,13.65
2022-11-10T18:44:19.201Z,13.54
2022-11-10T18:46:45.536Z,13.53
2022-11-10T18:49:11.868Z,13.50
2022-11-10T18:51:38.201Z,13.40
2022-11-10T18:54:04.559Z,13.33
2022-11-10T18:56:30.873Z,13.31
2022-11-10T18:58:57.233Z,13.35
2022-11-10T19:01:23.725Z,13.37
2022-11-10T19:03:49.896Z,13.40
2022-11-10T19:06:16.207Z,13.28
2022-11-10T19:08:42.524Z,13.29
2022-11-10T19:11:08.838Z,13.32
2022-11-10T19:13:35.196Z,13.22
2022-11-10T19:16:01.534Z,13.23
2022-11-10T19:18:27.882Z,13.19
2022-11-10T19:20:54.200Z,13.17
2022-11-10T19:23:20.925Z,13.16
2022-11-10T19:25:46.842Z,13.17
2022-11-10T19:28:13.179Z,13.15
2022-11-10T19:30:39.493Z,13.14
2022-11-10T19:33:05.804Z,13.04
2022-11-10T19:35:32.162Z,13.28
2022-11-10T19:37:58.486Z,13.25
2022-11-10T19:40:24.846Z,13.26
2022-11-10T19:42:51.181Z,13.27
2022-11-10T19:45:17.501Z,13.24
2022-11-10T19:47:43.856Z,13.22
2022-11-10T19:50:10.176Z,12.95
2022-11-10T19:52:36.521Z,12.74
2022-11-10T19:55:02.865Z,12.76
2022-11-10T19:57:29.179Z,12.83
2022-11-10T19:59:55.524Z,12.94
2022-11-10T20:02:21.944Z,13.06
2022-11-10T20:04:48.270Z,12.93
2022-11-10T20:07:14.668Z,12.89
2022-11-10T20:09:40.953Z,12.92
2022-11-10T20:12:07.270Z,12.86
2022-11-10T20:14:33.606Z,12.76
2022-11-10T20:16:59.970Z,12.77
2022-11-10T20:19:26.297Z,12.76
2022-11-10T20:21:52.639Z,12.72
2022-11-10T20:24:19.009Z,12.73
2022-11-10T20:26:45.327Z,12.68
2022-11-10T20:29:11.662Z,12.71
2022-11-10T20:31:38.015Z,12.67
2022-11-10T20:34:04.357Z,12.61
2022-11-10T20:36:30.702Z,12.52
2022-11-10T20:38:57.080Z,12.40
2022-11-10T20:41:23.411Z,12.37
2022-11-10T20:43:49.759Z,12.40
2022-11-10T20:46:33.190Z,12.47
2022-11-10T20:48:42.443Z,12.40
2022-11-10T20:51:08.777Z,12.38
2022-11-10T20:53:35.121Z,12.36
2022-11-10T20:56:01.463Z,12.34
2022-11-10T20:58:27.817Z,12.41
2022-11-10T21:00:54.166Z,12.43
2022-11-10T21:03:20.736Z,12.42
2022-11-10T21:05:46.864Z,12.41
2022-11-10T21:08:13.421Z,12.42
2022-11-10T21:10:39.751Z,12.46
2022-11-10T21:13:06.077Z,12.51
2022-11-10T21:15:32.420Z,12.63
2022-11-10T21:17:58.785Z,12.76
2022-11-10T21:20:25.144Z,12.82
2022-11-10T21:22:51.493Z,12.71
2022-11-10T21:25:17.832Z,12.69
2022-11-10T21:27:44.158Z,12.63
2022-11-10T21:30:14.222Z,12.66
2022-11-10T21:32:36.841Z,12.56
2022-11-10T21:35:03.206Z,12.51
2022-11-10T21:37:29.525Z,12.52
2022-11-10T21:39:55.849Z,12.56
2022-11-10T21:42:22.196Z,12.54
2022-11-10T21:44:48.533Z,12.58
2022-11-10T21:47:14.863Z,12.54
2022-11-10T21:49:41.190Z,12.60
2022-11-10T21:52:07.513Z,12.68
2022-11-10T21:54:33.828Z,12.71
2022-11-10T21:57:00.205Z,12.56
2022-11-10T21:59:26.554Z,12.45
2022-11-10T22:01:52.903Z,12.27
2022-11-10T22:04:19.280Z,12.26
2022-11-10T22:06:45.625Z,12.37
2022-11-10T22:09:11.965Z,12.40
2022-11-10T22:11:38.374Z,12.41
2022-11-10T22:14:04.679Z,12.40
2022-11-10T22:16:31.047Z,12.35
2022-11-10T22:18:57.364Z,12.29
2022-11-10T22:21:23.743Z,12.24
2022-11-10T22:23:50.084Z,12.19
2022-11-10T22:26:16.406Z,12.20
2022-11-10T22:28:42.755Z,12.06
2022-11-10T22:31:09.108Z,12.01
2022-11-10T22:33:35.426Z,11.94
2022-11-10T22:36:01.803Z,11.90
2022-11-10T22:38:28.127Z,11.90
2022-11-10T22:40:54.501Z,11.89
2022-11-10T22:43:21.127Z,11.83
2022-11-10T22:45:47.196Z,11.84
2022-11-10T22:48:13.543Z,11.71
2022-11-10T22:50:39.931Z,11.50
2022-11-10T22:53:06.275Z,11.41
2022-11-10T22:55:32.598Z,11.42
2022-11-10T22:57:58.941Z,11.26
2022-11-10T23:00:25.323Z,11.20
2022-11-10T23:02:51.644Z,11.28
2022-11-10T23:05:17.995Z,11.45
2022-11-10T23:07:44.333Z,11.50
2022-11-10T23:10:10.693Z,11.26
2022-11-10T23:12:37.010Z,11.14
2022-11-10T23:15:03.337Z,11.19
2022-11-10T23:17:29.695Z,11.18
2022-11-10T23:19:56.023Z,11.28
2022-11-10T23:22:22.363Z,11.22
2022-11-10T23:24:52.913Z,11.14
2022-11-10T23:27:15.014Z,11.09
2022-11-10T23:29:41.396Z,11.02
2022-11-10T23:32:07.717Z,11.06
2022-11-10T23:34:34.043Z,10.97
2022-11-10T23:37:00.362Z,10.77
2022-11-10T23:39:26.709Z,10.62
2022-11-10T23:41:53.082Z,10.72
2022-11-10T23:44:19.409Z,10.65
2022-11-10T23:46:45.727Z,10.68
2022-11-10T23:49:14.265Z,10.64
2022-11-10T23:51:40.607Z,10.60
2022-11-10T23:54:06.929Z,10.55
2022-11-10T23:56:33.367Z,10.57
2022-11-10T23:58:59.653Z,10.70
